Time;durP1;ratioP1;P1;durP2;ratioP2;P2;SDS_P1;SDS_P2;PMS_P1;PMS_P2;Temp;Humidity;BMP_temperature;BMP_pressure;BME280_temperature;BME280_humidity;BME280_pressure;Samples;Min_cycle;Max_cycle;Signal;HPM_P1;HPM_P2
2023/04/14 00:01:41;;;;;;;;;;;;;;;14.22;44.55;100351.69;7251725;19;153758;-55
2023/04/14 00:04:08;;;;;;;;;;;;;;;14.19;44.84;100355.03;7262502;19;153748;-56
2023/04/14 00:06:35;;;;;;;;;;;;;;;14.19;44.82;100350.31;7251316;19;154476;-56
2023/04/14 00:09:02;;;;;;;;;;;;;;;14.20;44.94;100351.16;7252385;19;154587;-56
2023/04/14 00:11:29;;;;;;;;;;;;;;;14.18;44.75;100348.66;7252202;19;153423;-56
2023/04/14 00:13:56;;;;;;;;;;;;;;;14.18;44.66;100345.88;7254260;19;153793;-55
2023/04/14 00:16:23;;;;;;;;;;;;;;;14.20;44.54;100340.03;7251275;19;154227;-56
2023/04/14 00:18:50;;;;;;;;;;;;;;;14.21;44.75;100344.50;7252817;19;153981;-55
2023/04/14 00:21:16;;;;;;;;;;;;;;;14.22;44.79;100338.63;7249559;19;153644;-55
2023/04/14 00:23:43;;;;;;;;;;;;;;;14.18;44.83;100337.53;7264505;19;152702;-56
2023/04/14 00:26:12;;;;;;;;;;;;;;;14.19;44.73;100341.97;7251475;19;154308;-55
2023/04/14 00:28:39;;;;;;;;;;;;;;;14.18;44.90;100339.47;7253492;19;153849;-55
2023/04/14 00:31:07;;;;;;;;;;;;;;;14.18;44.55;100337.53;7251782;19;152878;-55
2023/04/14 00:33:33;;;;;;;;;;;;;;;14.18;44.60;100336.69;7250561;19;154693;-55
2023/04/14 00:36:00;;;;;;;;;;;;;;;14.19;44.84;100338.38;7250730;19;153407;-56
2023/04/14 00:38:27;;;;;;;;;;;;;;;14.20;44.56;100335.31;7250574;19;154846;-55
2023/04/14 00:40:54;;;;;;;;;;;;;;;14.19;44.55;100330.88;7253080;19;153963;-55
2023/04/14 00:43:21;;;;;;;;;;;;;;;14.19;44.57;100330.03;7253759;19;153686;-55
2023/04/14 00:45:49;;;;;;;;;;;;;;;14.20;44.91;100337.25;7261916;19;155013;-56
2023/04/14 00:48:17;;;;;;;;;;;;;;;14.19;44.87;100332.81;7248863;19;152791;-56
2023/04/14 00:50:45;;;;;;;;;;;;;;;14.18;44.99;100326.44;7251659;19;152358;-54
2023/04/14 00:53:13;;;;;;;;;;;;;;;14.16;44.98;100334.22;7250516;19;154829;-56
2023/04/14 00:55:40;;;;;;;;;;;;;;;14.17;44.75;100330.31;7258364;19;152848;-55
2023/04/14 00:58:07;;;;;;;;;;;;;;;14.14;45.02;100330.03;7258475;19;153440;-55
2023/04/14 01:00:35;;;;;;;;;;;;;;;14.18;44.85;100328.38;7256705;19;154561;-55
2023/04/14 01:03:02;;;;;;;;;;;;;;;14.14;44.80;100327.28;7258081;19;152637;-54
2023/04/14 01:05:29;;;;;;;;;;;;;;;14.16;44.90;100330.59;7259523;19;154821;-55
2023/04/14 01:07:56;;;;;;;;;;;;;;;14.17;45.11;100321.16;7269173;19;154858;-55
2023/04/14 01:10:29;;;;;;;;;;;;;;;14.16;44.77;100319.50;7257861;19;155497;-55
2023/04/14 01:12:59;;;;;;;;;;;;;;;14.14;45.21;100321.72;7257636;19;153798;-55
2023/04/14 01:15:31;;;;;;;;;;;;;;;14.14;44.84;100313.38;7254887;19;152835;-55
2023/04/14 01:18:10;;;;;;;;;;;;;;;14.15;45.28;100315.88;7255762;19;153867;-55
2023/04/14 01:20:42;;;;;;;;;;;;;;;14.15;45.14;100306.72;7255358;19;154448;-55
2023/04/14 01:23:16;;;;;;;;;;;;;;;14.15;45.10;100317.81;7258801;19;153845;-55
2023/04/14 01:25:52;;;;;;;;;;;;;;;14.15;44.91;100303.94;7255882;19;155347;-56
2023/04/14 01:28:26;;;;;;;;;;;;;;;14.15;45.15;100307.56;7259078;19;154319;-54
2023/04/14 01:31:02;;;;;;;;;;;;;;;14.17;45.00;100307.28;7264435;19;154337;-56
2023/04/14 01:33:33;;;;;;;;;;;;;;;14.12;45.34;100299.78;7256383;19;153815;-56
2023/04/14 01:36:02;;;;;;;;;;;;;;;14.11;45.17;100295.34;7258909;19;153825;-55
2023/04/14 01:38:32;;;;;;;;;;;;;;;14.16;45.30;100300.88;7258220;19;152975;-56
2023/04/14 01:41:04;;;;;;;;;;;;;;;14.13;45.42;100295.03;7258485;19;154363;-56
2023/04/14 01:43:32;;;;;;;;;;;;;;;14.13;45.58;100303.38;7256085;19;153356;-56
2023/04/14 01:46:02;;;;;;;;;;;;;;;14.13;45.33;100292.25;7257332;19;153471;-56
2023/04/14 01:48:31;;;;;;;;;;;;;;;14.14;45.26;100288.38;7257877;19;154219;-55
2023/04/14 01:50:58;;;;;;;;;;;;;;;14.11;45.22;100275.91;7252322;19;152237;-56
2023/04/14 01:53:26;;;;;;;;;;;;;;;14.11;45.36;100287.00;7264509;19;153933;-55
2023/04/14 01:55:54;;;;;;;;;;;;;;;14.10;45.49;100273.41;7260096;19;153501;-56
2023/04/14 01:58:21;;;;;;;;;;;;;;;14.10;45.40;100282.56;7257932;19;154662;-55
2023/04/14 02:00:49;;;;;;;;;;;;;;;14.11;45.74;100275.06;7257722;19;154294;-56
2023/04/14 02:03:18;;;;;;;;;;;;;;;14.10;45.39;100273.41;7256385;19;154507;-56
2023/04/14 02:05:46;;;;;;;;;;;;;;;14.10;45.81;100274.22;7254046;19;152652;-55
2023/04/14 02:08:13;;;;;;;;;;;;;;;14.12;45.71;100272.00;7258642;19;154413;-56
2023/04/14 02:10:42;;;;;;;;;;;;;;;14.13;45.36;100272.81;7258960;19;153209;-55
2023/04/14 02:13:10;;;;;;;;;;;;;;;14.12;45.48;100271.19;7260460;19;153527;-56
2023/04/14 02:15:37;;;;;;;;;;;;;;;14.09;45.86;100264.22;7268599;19;154661;-55
2023/04/14 02:18:05;;;;;;;;;;;;;;;14.09;45.89;100268.94;7258055;19;153296;-56
2023/04/14 02:20:36;;;;;;;;;;;;;;;14.09;45.96;100267.00;7255003;19;155883;-56
2023/04/14 02:23:03;;;;;;;;;;;;;;;14.10;45.98;100273.41;7254787;19;154178;-56
2023/04/14 02:25:35;;;;;;;;;;;;;;;14.09;45.79;100271.72;7254333;19;153575;-56
2023/04/14 02:28:05;;;;;;;;;;;;;;;14.09;45.78;100267.00;7256286;19;154452;-55
2023/04/14 02:30:36;;;;;;;;;;;;;;;14.11;46.02;100266.72;7254210;19;151957;-56
2023/04/14 02:33:06;;;;;;;;;;;;;;;14.11;45.89;100255.63;7256751;19;153644;-56
2023/04/14 02:35:39;;;;;;;;;;;;;;;14.11;45.93;100258.41;7261475;19;155402;-56
2023/04/14 02:38:11;;;;;;;;;;;;;;;14.08;45.87;100254.22;7256551;19;152940;-55
2023/04/14 02:40:42;;;;;;;;;;;;;;;14.09;45.88;100255.06;7256061;19;153813;-56
2023/04/14 02:43:19;;;;;;;;;;;;;;;14.10;46.10;100253.94;7257419;19;154099;-56
2023/04/14 02:45:47;;;;;;;;;;;;;;;14.08;46.09;100254.22;7256127;19;153179;-55
2023/04/14 02:48:16;;;;;;;;;;;;;;;14.12;46.10;100257.28;7257238;19;154012;-55
2023/04/14 02:50:47;;;;;;;;;;;;;;;14.08;46.12;100250.66;7256736;19;154039;-56
2023/04/14 02:53:17;;;;;;;;;;;;;;;14.08;46.24;100250.66;7258915;19;152836;-55
2023/04/14 02:55:45;;;;;;;;;;;;;;;14.10;46.25;100251.19;7253798;19;153535;-55
2023/04/14 02:58:13;;;;;;;;;;;;;;;14.04;46.41;100252.28;7262424;19;153174;-55
2023/04/14 03:00:40;;;;;;;;;;;;;;;14.04;46.46;100239.25;7255440;19;155490;-55
2023/04/14 03:03:11;;;;;;;;;;;;;;;14.05;46.32;100237.31;7257503;19;153314;-54
2023/04/14 03:05:39;;;;;;;;;;;;;;;14.04;46.52;100246.75;7255133;19;154495;-56
2023/04/14 03:08:07;;;;;;;;;;;;;;;14.06;46.18;100239.81;7254219;19;154221;-56
2023/04/14 03:10:34;;;;;;;;;;;;;;;14.05;46.18;100238.13;7255859;19;152399;-55
2023/04/14 03:13:02;;;;;;;;;;;;;;;14.04;46.44;100230.91;7256911;19;153320;-56
2023/04/14 03:15:29;;;;;;;;;;;;;;;14.07;46.26;100221.19;7256934;19;154391;-55
2023/04/14 03:17:57;;;;;;;;;;;;;;;14.05;46.27;100231.75;7250017;19;153873;-56
2023/04/14 03:20:25;;;;;;;;;;;;;;;14.05;46.42;100215.09;7261390;19;153860;-56
2023/04/14 03:22:56;;;;;;;;;;;;;;;14.05;46.46;100224.25;7257017;19;154383;-56
2023/04/14 03:25:26;;;;;;;;;;;;;;;14.06;46.27;100217.59;7257791;19;153395;-56
2023/04/14 03:27:55;;;;;;;;;;;;;;;14.04;46.43;100217.03;7254163;19;153557;-56
2023/04/14 03:30:24;;;;;;;;;;;;;;;14.05;46.42;100209.53;7255264;19;153588;-56
2023/04/14 03:32:52;;;;;;;;;;;;;;;14.05;46.82;100218.69;7251054;19;155438;-56
2023/04/14 03:35:21;;;;;;;;;;;;;;;14.04;46.43;100217.03;7254308;19;154460;-56
2023/04/14 03:37:49;;;;;;;;;;;;;;;14.05;46.58;100212.31;7253185;19;154814;-56
2023/04/14 03:40:17;;;;;;;;;;;;;;;14.02;46.83;100207.31;7254052;19;155278;-55
2023/04/14 03:42:45;;;;;;;;;;;;;;;14.05;46.93;100206.75;7264363;19;154344;-56
2023/04/14 03:45:15;;;;;;;;;;;;;;;14.07;46.59;100208.16;7258215;19;153840;-56
2023/04/14 03:47:45;;;;;;;;;;;;;;;14.03;46.69;100204.28;7248249;19;156507;-56
2023/04/14 03:50:14;;;;;;;;;;;;;;;14.06;46.59;100192.59;7252708;19;152965;-56
2023/04/14 03:52:46;;;;;;;;;;;;;;;14.05;46.69;100196.47;7256785;19;153128;-58
2023/04/14 03:55:14;;;;;;;;;;;;;;;14.06;46.73;100194.53;7255247;19;154493;-55
2023/04/14 03:57:42;;;;;;;;;;;;;;;14.06;46.68;100195.38;7254059;19;153462;-56
2023/04/14 04:00:11;;;;;;;;;;;;;;;14.05;47.11;100192.88;7254142;19;153725;-54
2023/04/14 04:02:39;;;;;;;;;;;;;;;14.07;46.75;100188.72;7252863;19;154717;-55
2023/04/14 04:05:06;;;;;;;;;;;;;;;14.04;46.96;100192.03;7260530;19;154127;-55
2023/04/14 04:07:34;;;;;;;;;;;;;;;14.07;46.88;100190.66;7252766;19;154504;-55
2023/04/14 04:10:02;;;;;;;;;;;;;;;14.06;46.81;100186.19;7254894;19;153174;-55
2023/04/14 04:12:30;;;;;;;;;;;;;;;14.01;47.26;100184.28;7258865;19;152984;-55
2023/04/14 04:14:57;;;;;;;;;;;;;;;14.02;47.11;100182.34;7255134;19;153720;-55
2023/04/14 04:17:25;;;;;;;;;;;;;;;14.03;47.11;100184.00;7250506;19;154887;-55
2023/04/14 04:19:53;;;;;;;;;;;;;;;14.02;46.98;100185.94;7252439;19;153127;-55
2023/04/14 04:22:22;;;;;;;;;;;;;;;14.04;47.24;100183.69;7252614;19;153526;-55
2023/04/14 04:24:50;;;;;;;;;;;;;;;14.04;47.24;100178.16;7255560;19;152973;-55
2023/04/14 04:27:18;;;;;;;;;;;;;;;14.02;46.98;100176.78;7258598;19;153481;-55
2023/04/14 04:29:53;;;;;;;;;;;;;;;14.02;47.20;100174.84;7256287;19;153397;-55
2023/04/14 04:32:23;;;;;;;;;;;;;;;14.03;47.08;100173.72;7259364;19;154262;-55
2023/04/14 04:34:51;;;;;;;;;;;;;;;14.01;47.32;100175.94;7258128;19;153916;-55
2023/04/14 04:37:18;;;;;;;;;;;;;;;14.00;47.20;100165.13;7260141;19;153241;-55
2023/04/14 04:39:47;;;;;;;;;;;;;;;14.02;47.34;100174.00;7263351;19;153305;-55
2023/04/14 04:42:15;;;;;;;;;;;;;;;14.00;47.42;100168.72;7258442;19;153443;-55
2023/04/14 04:44:42;;;;;;;;;;;;;;;14.00;47.41;100165.94;7260374;19;153367;-55
2023/04/14 04:47:09;;;;;;;;;;;;;;;14.02;47.21;100168.44;7263843;19;153771;-55
2023/04/14 04:49:35;;;;;;;;;;;;;;;14.03;47.21;100178.44;7259643;19;154099;-55
2023/04/14 04:52:02;;;;;;;;;;;;;;;14.01;47.29;100172.34;7262169;19;152824;-54
2023/04/14 04:54:29;;;;;;;;;;;;;;;14.02;47.28;100169.28;7258866;19;154412;-55
2023/04/14 04:56:57;;;;;;;;;;;;;;;14.01;47.39;100170.41;7257341;19;153468;-55
2023/04/14 04:59:24;;;;;;;;;;;;;;;14.00;47.46;100170.66;7258887;19;153723;-55
2023/04/14 05:01:51;;;;;;;;;;;;;;;14.01;47.46;100167.63;7255263;19;154393;-55
2023/04/14 05:04:18;;;;;;;;;;;;;;;14.01;47.68;100169.56;7260443;19;154026;-55
2023/04/14 05:06:45;;;;;;;;;;;;;;;14.01;47.44;100167.63;7257440;19;154183;-55
2023/04/14 05:09:12;;;;;;;;;;;;;;;14.01;47.32;100158.44;7269095;19;153830;-55
2023/04/14 05:11:39;;;;;;;;;;;;;;;14.00;47.71;100157.63;7251760;19;152690;-55
2023/04/14 05:14:08;;;;;;;;;;;;;;;14.00;47.66;100165.94;7257717;19;154239;-55
2023/04/14 05:16:35;;;;;;;;;;;;;;;14.01;47.62;100159.28;7258276;19;153304;-55
2023/04/14 05:19:02;;;;;;;;;;;;;;;14.01;47.65;100158.44;7257729;19;154442;-55
2023/04/14 05:21:29;;;;;;;;;;;;;;;13.99;47.72;100155.94;7260169;19;153808;-55
2023/04/14 05:23:56;;;;;;;;;;;;;;;14.01;47.47;100164.00;7258486;19;152959;-55
2023/04/14 05:26:23;;;;;;;;;;;;;;;14.02;47.71;100160.13;7259810;19;153236;-55
2023/04/14 05:28:52;;;;;;;;;;;;;;;14.00;47.63;100152.06;7258488;19;154476;-56
2023/04/14 05:31:19;;;;;;;;;;;;;;;14.01;47.61;100150.94;7266655;19;153498;-55
2023/04/14 05:33:46;;;;;;;;;;;;;;;13.99;47.69;100150.38;7257215;19;154311;-55
2023/04/14 05:36:13;;;;;;;;;;;;;;;13.98;47.71;100142.38;7258171;19;153602;-55
2023/04/14 05:38:40;;;;;;;;;;;;;;;14.01;47.69;100139.00;7259164;19;154282;-55
2023/04/14 05:41:07;;;;;;;;;;;;;;;14.01;47.49;100148.19;7258230;19;154210;-55
2023/04/14 05:43:34;;;;;;;;;;;;;;;14.02;47.54;100141.50;7258389;19;154198;-55
2023/04/14 05:46:01;;;;;;;;;;;;;;;14.01;47.70;100144.56;7260022;19;153252;-55
2023/04/14 05:48:29;;;;;;;;;;;;;;;14.00;47.48;100145.69;7256495;19;153504;-55
2023/04/14 05:50:56;;;;;;;;;;;;;;;14.01;47.93;100145.41;7257051;19;153801;-55
2023/04/14 05:53:23;;;;;;;;;;;;;;;14.02;47.59;100138.75;7265127;19;154895;-55
2023/04/14 05:55:51;;;;;;;;;;;;;;;14.03;47.35;100140.41;7258341;19;153561;-55
2023/04/14 05:58:18;;;;;;;;;;;;;;;14.00;47.83;100134.56;7255117;19;153068;-55
2023/04/14 06:00:45;;;;;;;;;;;;;;;14.01;47.72;100130.69;7255558;19;156373;-54
2023/04/14 06:03:12;;;;;;;;;;;;;;;14.03;47.50;100128.47;7253104;19;153468;-55
2023/04/14 06:05:39;;;;;;;;;;;;;;;14.00;47.88;100132.63;7257290;19;154687;-55
2023/04/14 06:08:06;;;;;;;;;;;;;;;14.02;47.51;100129.56;7258064;19;153946;-55
2023/04/14 06:10:34;;;;;;;;;;;;;;;14.00;47.82;100129.00;7258071;19;152372;-55
2023/04/14 06:13:01;;;;;;;;;;;;;;;14.01;47.60;100127.91;7258233;19;153558;-56
2023/04/14 06:15:28;;;;;;;;;;;;;;;13.99;47.89;100132.94;7264265;19;153751;-56
2023/04/14 06:17:55;;;;;;;;;;;;;;;13.99;47.57;100121.81;7255859;19;154577;-55
2023/04/14 06:20:22;;;;;;;;;;;;;;;14.01;47.82;100116.78;7255996;19;154133;-55
2023/04/14 06:22:49;;;;;;;;;;;;;;;14.02;47.95;100115.69;7258512;19;153782;-55
2023/04/14 06:25:16;;;;;;;;;;;;;;;14.00;47.94;100117.91;7256234;19;153487;-56
2023/04/14 06:27:45;;;;;;;;;;;;;;;13.99;47.70;100111.50;7256284;19;153807;-55
2023/04/14 06:30:15;;;;;;;;;;;;;;;13.99;47.62;100119.84;7259506;19;153414;-56
2023/04/14 06:32:42;;;;;;;;;;;;;;;14.01;47.58;100114.84;7255525;19;154376;-55
2023/04/14 06:35:09;;;;;;;;;;;;;;;14.01;47.88;100116.78;7257039;19;153682;-56
2023/04/14 06:37:51;;;;;;;;;;;;;;;14.05;47.85;100118.72;7263789;19;153199;-56
2023/04/14 06:40:18;;;;;;;;;;;;;;;14.03;47.88;100115.41;7254304;19;154334;-56
2023/04/14 06:42:45;;;;;;;;;;;;;;;14.02;47.68;100115.69;7255252;19;154482;-56
2023/04/14 06:45:11;;;;;;;;;;;;;;;14.01;47.95;100108.47;7257369;19;152902;-55
2023/04/14 06:47:38;;;;;;;;;;;;;;;14.03;48.02;100109.84;7254036;19;156041;-55
2023/04/14 06:50:06;;;;;;;;;;;;;;;14.03;47.92;100114.59;7253242;19;152026;-55
2023/04/14 06:52:33;;;;;;;;;;;;;;;14.01;47.78;100114.84;7254161;19;155244;-55
2023/04/14 06:54:59;;;;;;;;;;;;;;;14.01;47.95;100108.47;7253766;19;153956;-55
2023/04/14 06:57:26;;;;;;;;;;;;;;;14.02;47.99;100105.41;7262830;19;153389;-55
2023/04/14 06:59:53;;;;;;;;;;;;;;;14.02;48.13;100113.75;7255698;19;154587;-55
2023/04/14 07:02:20;;;;;;;;;;;;;;;14.03;47.92;100109.84;7252764;19;154123;-55
2023/04/14 07:04:50;;;;;;;;;;;;;;;14.03;48.00;100107.09;7255069;19;153353;-55
2023/04/14 07:07:17;;;;;;;;;;;;;;;14.04;47.82;100100.38;7254742;19;155256;-55
2023/04/14 07:09:44;;;;;;;;;;;;;;;14.04;47.83;100099.56;7252985;19;153601;-55
2023/04/14 07:12:12;;;;;;;;;;;;;;;14.05;47.84;100102.06;7258988;19;153183;-55
2023/04/14 07:14:40;;;;;;;;;;;;;;;14.04;48.15;100097.63;7254587;19;153909;-55
2023/04/14 07:17:07;;;;;;;;;;;;;;;14.03;48.09;100095.97;7256389;19;152639;-55
2023/04/14 07:19:34;;;;;;;;;;;;;;;14.06;47.82;100092.63;7261604;19;155593;-55
2023/04/14 07:22:01;;;;;;;;;;;;;;;14.08;47.81;100103.44;7254147;19;152681;-56
2023/04/14 07:24:27;;;;;;;;;;;;;;;14.05;47.88;100104.00;7254602;19;153684;-56
2023/04/14 07:26:54;;;;;;;;;;;;;;;14.04;47.83;100100.38;7249561;19;154724;-55
2023/04/14 07:29:21;;;;;;;;;;;;;;;14.04;48.11;100094.00;7254352;19;153253;-55
2023/04/14 07:31:51;;;;;;;;;;;;;;;14.05;47.93;100104.00;7254895;19;154339;-56
2023/04/14 07:34:18;;;;;;;;;;;;;;;14.07;47.69;100096.22;7254123;19;154552;-56
2023/04/14 07:36:45;;;;;;;;;;;;;;;14.07;48.00;100093.44;7253163;19;153568;-55
2023/04/14 07:39:12;;;;;;;;;;;;;;;14.06;47.73;100094.56;7257508;19;153446;-56
2023/04/14 07:41:40;;;;;;;;;;;;;;;14.05;47.82;100093.72;7257514;19;154334;-56
2023/04/14 07:44:07;;;;;;;;;;;;;;;14.04;47.99;100097.63;7255553;19;153805;-56
2023/04/14 07:46:34;;;;;;;;;;;;;;;14.04;47.82;100100.38;7252965;19;154096;-54
2023/04/14 07:49:01;;;;;;;;;;;;;;;14.07;47.98;100093.44;7253740;19;153245;-55
2023/04/14 07:51:27;;;;;;;;;;;;;;;14.06;48.06;100095.41;7252989;19;154643;-56
2023/04/14 07:53:57;;;;;;;;;;;;;;;14.04;47.88;100085.66;7256176;19;154238;-56
2023/04/14 07:56:24;;;;;;;;;;;;;;;14.06;47.87;100086.22;7254734;19;153483;-55
2023/04/14 07:58:51;;;;;;;;;;;;;;;14.07;48.02;100079.56;7254682;19;154083;-56
2023/04/14 08:01:18;;;;;;;;;;;;;;;14.05;48.07;100079.00;7253526;19;155621;-56
2023/04/14 08:03:45;;;;;;;;;;;;;;;14.06;47.98;100083.44;7268391;19;153856;-56
2023/04/14 08:06:12;;;;;;;;;;;;;;;14.06;47.99;100080.66;7258474;19;154636;-56
2023/04/14 08:08:39;;;;;;;;;;;;;;;14.09;47.84;100075.38;7262108;19;154207;-55
2023/04/14 08:11:06;;;;;;;;;;;;;;;14.10;47.99;100078.97;7260683;19;153774;-55
2023/04/14 08:13:33;;;;;;;;;;;;;;;14.06;48.15;100072.34;7260205;19;154804;-56
2023/04/14 08:16:00;;;;;;;;;;;;;;;14.07;48.34;100083.19;7258563;19;152573;-55
2023/04/14 08:18:27;;;;;;;;;;;;;;;14.06;48.20;100075.13;7261902;19;155675;-56
2023/04/14 08:20:57;;;;;;;;;;;;;;;14.07;48.45;100076.78;7257892;19;153056;-55
2023/04/14 08:23:24;;;;;;;;;;;;;;;14.09;48.21;100072.59;7260314;19;154375;-55
2023/04/14 08:25:54;;;;;;;;;;;;;;;14.09;48.39;100071.75;7268374;19;153270;-56
2023/04/14 08:28:21;;;;;;;;;;;;;;;14.10;48.23;100074.25;7262622;19;153943;-56
2023/04/14 08:30:48;;;;;;;;;;;;;;;14.11;48.49;100063.97;7258999;19;154416;-55
2023/04/14 08:33:15;;;;;;;;;;;;;;;14.15;48.19;100065.06;7255922;19;154169;-56
2023/04/14 08:35:42;;;;;;;;;;;;;;;14.14;48.19;100074.50;7259447;19;153211;-56
2023/04/14 08:38:09;;;;;;;;;;;;;;;14.15;48.35;100074.22;7261769;19;154960;-55
2023/04/14 08:40:41;;;;;;;;;;;;;;;14.14;48.21;100068.94;7262468;19;154864;-54
2023/04/14 08:43:11;;;;;;;;;;;;;;;14.15;48.11;100070.63;7257665;19;153804;-55
2023/04/14 08:45:40;;;;;;;;;;;;;;;14.15;48.34;100071.44;7261975;19;154215;-56
2023/04/14 08:48:08;;;;;;;;;;;;;;;14.16;48.16;100069.50;7263869;19;153826;-56
2023/04/14 08:50:36;;;;;;;;;;;;;;;14.14;48.29;100071.72;7259436;19;152636;-56
2023/04/14 08:53:07;;;;;;;;;;;;;;;14.18;48.26;100070.03;7257992;19;153871;-56
2023/04/14 08:55:39;;;;;;;;;;;;;;;14.19;48.24;100077.25;7262524;19;153864;-55
2023/04/14 08:58:07;;;;;;;;;;;;;;;14.17;48.57;100073.94;7258762;19;153533;-55
2023/04/14 09:00:34;;;;;;;;;;;;;;;14.16;48.73;100067.56;7257965;19;153545;-55
2023/04/14 09:03:01;;;;;;;;;;;;;;;14.16;48.52;100069.50;7257121;19;153801;-55
2023/04/14 09:05:29;;;;;;;;;;;;;;;14.17;48.62;100069.19;7259667;19;154018;-56
2023/04/14 09:07:56;;;;;;;;;;;;;;;14.17;48.75;100071.19;7264297;19;153870;-56
2023/04/14 09:10:24;;;;;;;;;;;;;;;14.20;48.38;100065.88;7259003;19;153748;-56
2023/04/14 09:12:52;;;;;;;;;;;;;;;14.16;48.62;100069.50;7258579;19;153929;-56
2023/04/14 09:15:20;;;;;;;;;;;;;;;14.19;48.77;100071.69;7254911;19;152368;-56
2023/04/14 09:17:47;;;;;;;;;;;;;;;14.19;48.60;100066.97;7255457;19;152732;-54
2023/04/14 09:20:14;;;;;;;;;;;;;;;14.19;48.37;100055.88;7258129;19;153590;-56
2023/04/14 09:23:02;;;;;;;;;;;;;;;14.17;48.66;100068.41;7260555;19;151783;-55
2023/04/14 09:25:30;;;;;;;;;;;;;;;14.20;48.38;100065.88;7259105;19;154147;-56
2023/04/14 09:27:57;;;;;;;;;;;;;;;14.20;48.37;100074.19;7260072;19;153394;-56
2023/04/14 09:30:24;;;;;;;;;;;;;;;14.20;48.45;100070.59;7265695;19;152959;-55
2023/04/14 09:32:52;;;;;;;;;;;;;;;14.19;48.44;100068.94;7255989;19;154604;-56
2023/04/14 09:35:19;;;;;;;;;;;;;;;14.19;48.68;100077.25;7258724;19;153686;-55
2023/04/14 09:37:47;;;;;;;;;;;;;;;14.19;48.46;100080.88;7260584;19;155395;-56
2023/04/14 09:40:23;;;;;;;;;;;;;;;14.18;48.66;100076.44;7257926;19;154698;-56
2023/04/14 09:42:50;;;;;;;;;;;;;;;14.21;48.65;100072.25;7259008;19;152885;-56
2023/04/14 09:45:17;;;;;;;;;;;;;;;14.22;48.44;100076.66;7258425;19;153709;-56
2023/04/14 09:47:44;;;;;;;;;;;;;;;14.22;48.36;100060.00;7253654;19;154343;-56
2023/04/14 09:50:11;;;;;;;;;;;;;;;14.22;48.35;100069.16;7258957;19;152555;-55
2023/04/14 09:52:39;;;;;;;;;;;;;;;14.23;48.61;100065.28;7262990;19;154425;-55
2023/04/14 09:55:08;;;;;;;;;;;;;;;14.23;48.27;100070.00;7258137;19;152968;-56
2023/04/14 09:57:37;;;;;;;;;;;;;;;14.24;48.18;100068.91;7256177;19;155505;-56
2023/04/14 10:00:17;;;;;;;;;;;;;;;14.24;48.39;100074.44;7256750;19;153614;-56
2023/04/14 10:02:48;;;;;;;;;;;;;;;14.26;48.53;100072.22;7255485;19;153547;-56
2023/04/14 10:05:18;;;;;;;;;;;;;;;14.25;48.42;100070.56;7258400;19;153956;-56
2023/04/14 10:07:45;;;;;;;;;;;;;;;14.26;48.49;100061.91;7255958;19;154014;-56
2023/04/14 10:10:12;;;;;;;;;;;;;;;14.25;48.43;100063.06;7258388;19;154163;-56
2023/04/14 10:12:42;;;;;;;;;;;;;;;14.26;48.34;100059.13;7256827;19;153184;-56
2023/04/14 10:15:10;;;;;;;;;;;;;;;14.26;48.32;100061.91;7264168;19;154327;-56
2023/04/14 10:17:40;;;;;;;;;;;;;;;14.26;48.16;100061.13;7256218;19;154545;-55
2023/04/14 10:20:10;;;;;;;;;;;;;;;14.26;48.44;100061.91;7256868;19;154192;-56
2023/04/14 10:22:37;;;;;;;;;;;;;;;14.25;48.28;100063.06;7257614;19;153092;-55
2023/04/14 10:25:06;;;;;;;;;;;;;;;14.27;48.46;100073.88;7256497;19;154346;-56
2023/04/14 10:27:34;;;;;;;;;;;;;;;14.29;47.99;100081.94;7254309;19;154653;-56
2023/04/14 10:30:01;;;;;;;;;;;;;;;14.27;48.42;100102.47;7260019;19;153263;-56
2023/04/14 10:32:30;;;;;;;;;;;;;;;14.23;48.46;100115.28;7255866;19;153433;-55
2023/04/14 10:35:07;;;;;;;;;;;;;;;14.21;48.57;100109.22;7258053;19;153685;-56
2023/04/14 10:37:34;;;;;;;;;;;;;;;14.25;48.63;100098.34;7262364;19;154648;-55
2023/04/14 10:40:04;;;;;;;;;;;;;;;14.24;48.34;100105.00;7254807;19;154104;-55
2023/04/14 10:42:40;;;;;;;;;;;;;;;14.24;48.71;100099.44;7256718;19;152696;-55
2023/04/14 10:45:09;;;;;;;;;;;;;;;14.26;48.50;100111.13;7259541;19;154153;-56
2023/04/14 10:47:39;;;;;;;;;;;;;;;14.27;48.69;100096.94;7255932;19;153543;-55
2023/04/14 10:50:10;;;;;;;;;;;;;;;14.26;48.75;100102.78;7256001;19;154548;-55
2023/04/14 10:52:38;;;;;;;;;;;;;;;14.24;48.95;100105.84;7257486;19;154376;-55
2023/04/14 10:55:06;;;;;;;;;;;;;;;14.25;48.91;100110.28;7257907;19;153211;-56
2023/04/14 10:57:37;;;;;;;;;;;;;;;14.25;48.99;100107.50;7263098;19;154012;-56
2023/04/14 11:00:13;;;;;;;;;;;;;;;14.23;49.27;100100.56;7255952;19;153307;-55
2023/04/14 11:02:52;;;;;;;;;;;;;;;14.25;48.96;100098.34;7253453;19;154382;-56
2023/04/14 11:05:19;;;;;;;;;;;;;;;14.31;48.82;100097.16;7255453;19;154013;-56
2023/04/14 11:07:48;;;;;;;;;;;;;;;14.32;48.64;100098.84;7255875;19;154491;-56
2023/04/14 11:10:16;;;;;;;;;;;;;;;14.33;48.99;100103.28;7257729;19;153764;-55
2023/04/14 11:12:44;;;;;;;;;;;;;;;14.35;48.71;100098.28;7256587;19;154091;-55
2023/04/14 11:15:12;;;;;;;;;;;;;;;14.34;49.17;100093.00;7253406;19;155375;-55
2023/04/14 11:17:39;;;;;;;;;;;;;;;14.32;48.78;100089.66;7253527;19;153349;-56
2023/04/14 11:20:14;;;;;;;;;;;;;;;14.33;48.91;100094.94;7263146;19;153530;-56
2023/04/14 11:22:43;;;;;;;;;;;;;;;14.34;48.75;100096.63;7254477;19;152814;-56
2023/04/14 11:25:11;;;;;;;;;;;;;;;14.33;49.07;100103.28;7257233;19;153718;-56
2023/04/14 11:27:38;;;;;;;;;;;;;;;14.32;49.33;100098.00;7253102;19;154406;-56
2023/04/14 11:30:06;;;;;;;;;;;;;;;14.35;48.96;100103.84;7257129;19;154023;-56
2023/04/14 11:32:42;;;;;;;;;;;;;;;14.38;49.16;100096.91;7252929;19;154131;-56
2023/04/14 11:35:09;;;;;;;;;;;;;;;14.43;49.11;100097.69;7254100;19;154182;-56
2023/04/14 11:37:37;;;;;;;;;;;;;;;14.48;48.76;100088.50;7253005;19;154655;-56
2023/04/14 11:40:05;;;;;;;;;;;;;;;14.45;49.06;100087.09;7256204;19;154337;-56
2023/04/14 11:42:35;;;;;;;;;;;;;;;14.45;48.86;100091.84;7261065;19;155667;-55
2023/04/14 11:45:02;;;;;;;;;;;;;;;14.46;49.12;100093.50;7255636;19;153098;-56
2023/04/14 11:47:29;;;;;;;;;;;;;;;14.47;48.86;100098.78;7251494;19;155128;-56
2023/04/14 11:50:00;;;;;;;;;;;;;;;14.48;48.94;100086.56;7253767;19;151798;-56
2023/04/14 11:52:27;;;;;;;;;;;;;;;14.50;49.12;100087.06;7253653;19;155296;-55
2023/04/14 11:54:53;;;;;;;;;;;;;;;14.52;49.06;100090.41;7253645;19;154649;-55
2023/04/14 11:57:21;;;;;;;;;;;;;;;14.54;48.65;100087.31;7255005;19;153167;-56
2023/04/14 11:59:48;;;;;;;;;;;;;;;14.53;48.86;100094.03;7253544;19;154184;-56
2023/04/14 12:02:16;;;;;;;;;;;;;;;14.47;49.15;100096.00;7249203;19;154575;-55
2023/04/14 12:04:48;;;;;;;;;;;;;;;14.46;49.39;100083.22;7257633;19;152643;-55
2023/04/14 12:07:17;;;;;;;;;;;;;;;14.50;49.23;100092.63;7252075;19;153996;-55
2023/04/14 12:09:49;;;;;;;;;;;;;;;14.54;49.26;100093.72;7254546;19;154236;-55
2023/04/14 12:12:16;;;;;;;;;;;;;;;14.55;48.97;100089.00;7254311;19;153327;-56
2023/04/14 12:14:45;;;;;;;;;;;;;;;14.55;49.11;100089.81;7253254;19;155562;-56
2023/04/14 12:17:14;;;;;;;;;;;;;;;14.53;49.12;100078.19;7253050;19;154361;-56
2023/04/14 12:19:41;;;;;;;;;;;;;;;14.53;48.98;100077.34;7252228;19;154016;-56
2023/04/14 12:22:08;;;;;;;;;;;;;;;14.56;48.78;100077.59;7252898;19;154640;-56
2023/04/14 12:24:36;;;;;;;;;;;;;;;14.57;48.90;100078.44;7254657;19;153176;-56
2023/04/14 12:27:05;;;;;;;;;;;;;;;14.54;49.21;100071.47;7258852;19;154720;-55
2023/04/14 12:29:33;;;;;;;;;;;;;;;14.56;48.89;100074.81;7253472;19;154287;-55
2023/04/14 12:32:01;;;;;;;;;;;;;;;14.57;48.87;100070.91;7250011;19;153313;-56
2023/04/14 12:34:28;;;;;;;;;;;;;;;14.57;49.09;100076.47;7251583;19;154131;-56